createdAt,value
2018-04-29T00:01:00.031Z,34.03
2018-04-29T00:06:00.983Z,28.93
2018-04-29T00:11:01.958Z,27.70
2018-04-29T00:16:02.941Z,35.27
2018-04-29T00:21:03.956Z,30.20
2018-04-29T00:26:04.958Z,30.53
2018-04-29T00:31:05.939Z,27.10
2018-04-29T00:36:06.909Z,32.97
2018-04-29T00:41:07.888Z,30.30
2018-04-29T00:46:08.904Z,30.53
2018-04-29T00:51:09.876Z,29.83
2018-04-29T00:56:10.847Z,29.87
2018-04-29T01:01:11.808Z,28.80
2018-04-29T01:06:12.791Z,50.07
2018-04-29T01:11:13.763Z,31.57
2018-04-29T01:16:14.736Z,32.30
2018-04-29T01:21:15.729Z,34.30
2018-04-29T01:26:16.733Z,35.13
2018-04-29T01:31:17.693Z,36.13
2018-04-29T01:36:18.671Z,37.60
2018-04-29T01:41:19.636Z,35.20
2018-04-29T01:46:20.586Z,43.33
2018-04-29T01:51:21.528Z,36.93
2018-04-29T01:56:22.521Z,34.97
2018-04-29T02:01:23.476Z,33.53
2018-04-29T02:06:24.441Z,36.80
2018-04-29T02:11:25.388Z,39.67
2018-04-29T02:16:26.350Z,35.20
2018-04-29T02:21:27.334Z,40.20
2018-04-29T02:26:28.299Z,39.67
2018-04-29T02:31:29.306Z,34.17
2018-04-29T02:36:30.230Z,42.57
2018-04-29T02:41:31.212Z,34.83
2018-04-29T02:46:32.186Z,39.53
2018-04-29T02:51:33.160Z,41.07
2018-04-29T02:56:34.113Z,38.60
2018-04-29T03:01:35.063Z,42.93
2018-04-29T03:06:36.004Z,35.73
2018-04-29T03:11:36.964Z,52.27
2018-04-29T03:16:37.928Z,44.73
2018-04-29T03:21:38.912Z,41.00
2018-04-29T03:26:39.864Z,44.17
2018-04-29T03:31:40.812Z,43.73
2018-04-29T03:36:41.772Z,47.30
2018-04-29T03:41:42.717Z,39.83
2018-04-29T03:46:43.674Z,41.77
2018-04-29T03:51:44.605Z,39.23
2018-04-29T03:56:45.556Z,38.53
2018-04-29T04:01:58.960Z,37.43
2018-04-29T04:06:59.964Z,44.40
2018-04-29T04:12:00.920Z,46.93
2018-04-29T04:17:01.898Z,49.20
2018-04-29T04:22:02.866Z,45.13
2018-04-29T04:27:03.851Z,50.97
2018-04-29T04:32:04.807Z,65.97
2018-04-29T04:37:05.780Z,78.03
2018-04-29T04:42:06.753Z,66.77
2018-04-29T04:47:07.712Z,83.37
2018-04-29T04:52:08.660Z,106.37
2018-04-29T04:57:09.614Z,78.93
2018-04-29T05:02:10.594Z,79.20
2018-04-29T05:07:11.540Z,78.10
2018-04-29T05:12:12.507Z,73.37
2018-04-29T05:17:13.482Z,79.90
2018-04-29T05:22:14.638Z,86.47
2018-04-29T05:27:15.606Z,77.13
2018-04-29T05:32:16.600Z,76.53
2018-04-29T05:37:17.540Z,75.07
2018-04-29T05:42:18.523Z,66.97
2018-04-29T05:47:19.986Z,63.80
2018-04-29T05:52:20.960Z,64.67
2018-04-29T05:57:22.250Z,64.97
2018-04-29T06:02:23.238Z,70.77
2018-04-29T06:07:24.196Z,70.23
2018-04-29T06:12:25.187Z,71.90
2018-04-29T06:17:26.130Z,67.40
2018-04-29T06:22:27.127Z,81.53
2018-04-29T06:27:28.099Z,64.17
2018-04-29T06:32:29.111Z,80.63
2018-04-29T06:37:30.071Z,79.87
2018-04-29T06:42:31.060Z,67.50
2018-04-29T06:47:32.004Z,72.10
2018-04-29T06:52:32.963Z,79.57
2018-04-29T06:57:33.930Z,79.67
2018-04-29T07:02:34.882Z,74.20
2018-04-29T07:07:35.850Z,88.30
2018-04-29T07:12:36.813Z,86.97
2018-04-29T07:17:37.786Z,97.13
2018-04-29T07:22:38.812Z,93.63
2018-04-29T07:27:39.805Z,80.70
2018-04-29T07:32:40.825Z,85.63
2018-04-29T07:37:41.856Z,70.60
2018-04-29T07:42:42.825Z,77.20
2018-04-29T07:47:43.828Z,70.37
2018-04-29T07:52:44.855Z,77.93
2018-04-29T07:57:45.801Z,68.40
2018-04-29T08:02:46.777Z,78.37
2018-04-29T08:07:47.767Z,66.73
2018-04-29T08:12:48.938Z,74.97
2018-04-29T08:17:49.905Z,76.77
2018-04-29T08:22:51.559Z,84.03
2018-04-29T08:27:52.536Z,85.47
2018-04-29T08:32:53.510Z,83.53
2018-04-29T08:37:54.552Z,73.77
2018-04-29T08:42:55.568Z,81.57
2018-04-29T08:47:56.563Z,79.37
2018-04-29T08:52:57.547Z,81.60
2018-04-29T08:57:59.383Z,75.17
2018-04-29T09:03:00.340Z,86.10
2018-04-29T09:08:01.363Z,85.77
2018-04-29T09:13:02.359Z,84.00
2018-04-29T09:18:03.360Z,91.23
2018-04-29T09:23:04.416Z,85.67
2018-04-29T09:28:05.411Z,86.47
2018-04-29T09:33:06.391Z,92.90
2018-04-29T09:38:07.392Z,91.17
2018-04-29T09:43:08.392Z,85.30
2018-04-29T09:48:09.369Z,84.03
2018-04-29T09:53:10.361Z,88.37
2018-04-29T09:58:11.306Z,80.93
2018-04-29T10:03:12.274Z,74.40
2018-04-29T10:08:13.280Z,87.90
2018-04-29T10:13:14.253Z,78.53
2018-04-29T10:18:15.261Z,79.40
2018-04-29T10:23:16.279Z,87.90
2018-04-29T10:28:17.250Z,97.00
2018-04-29T10:33:18.252Z,84.70
2018-04-29T10:38:19.222Z,80.77
2018-04-29T10:43:20.199Z,85.00
2018-04-29T10:48:21.215Z,66.67
2018-04-29T10:53:22.174Z,74.50
2018-04-29T10:58:23.148Z,67.67
2018-04-29T11:03:24.145Z,71.43
2018-04-29T11:08:25.152Z,79.57
2018-04-29T11:13:26.141Z,72.43
2018-04-29T11:18:27.142Z,69.13
2018-04-29T11:23:28.169Z,70.50
2018-04-29T11:28:29.170Z,71.03
2018-04-29T11:33:30.180Z,72.03
2018-04-29T11:38:38.103Z,72.97
2018-04-29T11:43:39.071Z,71.67
2018-04-29T11:48:40.058Z,67.23
2018-04-29T11:53:41.040Z,55.70
2018-04-29T11:58:42.020Z,60.50
2018-04-29T12:03:43.009Z,60.53
2018-04-29T12:08:43.964Z,58.40
2018-04-29T12:13:44.960Z,58.43
2018-04-29T12:18:45.939Z,60.20
2018-04-29T12:23:46.962Z,55.50
2018-04-29T12:28:47.924Z,60.30
2018-04-29T12:33:48.885Z,55.57
2018-04-29T12:38:49.963Z,63.60
2018-04-29T12:43:50.939Z,68.33
2018-04-29T12:48:51.943Z,59.93
2018-04-29T12:53:52.937Z,62.97
2018-04-29T12:58:53.912Z,56.20
2018-04-29T13:03:54.906Z,59.93
2018-04-29T13:08:55.881Z,61.50
2018-04-29T13:13:56.912Z,65.83
2018-04-29T13:18:57.922Z,73.47
2018-04-29T13:23:58.988Z,58.03
2018-04-29T13:28:59.959Z,58.67
2018-04-29T13:34:00.938Z,60.70
2018-04-29T13:39:01.920Z,72.57
2018-04-29T13:44:02.899Z,69.03
2018-04-29T13:49:03.866Z,75.77
2018-04-29T13:54:04.865Z,81.80
2018-04-29T13:59:05.877Z,71.47
2018-04-29T14:04:06.870Z,73.37
2018-04-29T14:09:07.857Z,72.20
2018-04-29T14:14:08.855Z,86.13
2018-04-29T14:19:09.877Z,92.20
2018-04-29T14:24:10.917Z,86.13
2018-04-29T14:29:11.937Z,91.93
2018-04-29T14:34:12.945Z,89.13
2018-04-29T14:39:13.918Z,79.20
2018-04-29T14:44:14.918Z,65.37
2018-04-29T14:49:15.885Z,69.93
2018-04-29T14:54:16.880Z,64.93
2018-04-29T14:59:17.871Z,64.17
2018-04-29T15:04:18.884Z,66.73
2018-04-29T15:09:19.849Z,71.13
2018-04-29T15:14:20.851Z,64.30
2018-04-29T15:19:21.848Z,72.80
2018-04-29T15:24:22.941Z,71.53
2018-04-29T15:29:23.932Z,64.80
2018-04-29T15:34:24.956Z,61.40
2018-04-29T15:39:25.977Z,72.17
2018-04-29T15:44:26.981Z,72.00
2018-04-29T15:49:27.977Z,71.30
2018-04-29T15:54:28.950Z,75.37
2018-04-29T15:59:29.928Z,76.33
2018-04-29T16:04:30.917Z,79.00
2018-04-29T16:09:31.911Z,69.93
2018-04-29T16:14:32.913Z,77.33
2018-04-29T16:19:33.939Z,68.17
2018-04-29T16:24:35.023Z,74.53
2018-04-29T16:29:36.013Z,77.50
2018-04-29T16:34:37.127Z,74.00
2018-04-29T16:39:38.143Z,73.83
2018-04-29T16:44:39.167Z,71.00
2018-04-29T16:49:40.233Z,71.70
2018-04-29T16:54:41.314Z,70.40
2018-04-29T16:59:42.362Z,71.93
2018-04-29T17:04:43.401Z,70.87
2018-04-29T17:09:44.379Z,60.77
2018-04-29T17:14:45.366Z,64.97
2018-04-29T17:19:46.380Z,50.83
2018-04-29T17:24:47.463Z,48.60
2018-04-29T17:29:48.489Z,49.57
2018-04-29T17:34:49.538Z,47.30
2018-04-29T17:39:50.585Z,48.30
2018-04-29T17:44:51.628Z,40.00
2018-04-29T17:49:52.613Z,43.67
2018-04-29T17:54:53.673Z,43.83
2018-04-29T17:59:54.673Z,39.83
2018-04-29T18:04:55.687Z,43.70
2018-04-29T18:09:56.702Z,37.50
2018-04-29T18:14:57.721Z,27.27
2018-04-29T18:19:58.759Z,36.50
2018-04-29T18:24:59.796Z,33.10
2018-04-29T18:30:00.902Z,36.50
2018-04-29T18:35:01.965Z,28.07
2018-04-29T18:40:03.073Z,29.90
2018-04-29T18:45:04.092Z,24.83
2018-04-29T18:50:05.113Z,20.20
2018-04-29T18:55:06.140Z,20.60
2018-04-29T19:00:07.177Z,28.13
2018-04-29T19:05:08.209Z,24.30
2018-04-29T19:10:09.266Z,15.73
2018-04-29T19:15:10.344Z,19.73
2018-04-29T19:20:11.408Z,14.43
2018-04-29T19:25:12.469Z,20.40
2018-04-29T19:30:13.557Z,13.70
2018-04-29T19:35:21.719Z,18.73
2018-04-29T19:40:22.758Z,29.63
2018-04-29T19:45:23.921Z,25.43
2018-04-29T19:50:24.936Z,26.20
2018-04-29T19:55:25.972Z,25.50
2018-04-29T20:00:27.075Z,31.40
2018-04-29T20:05:28.101Z,28.23
2018-04-29T20:10:29.119Z,31.10
2018-04-29T20:15:30.151Z,30.40
2018-04-29T20:20:31.145Z,31.00
2018-04-29T20:25:32.198Z,29.70
2018-04-29T20:30:33.215Z,35.93
2018-04-29T20:35:34.290Z,48.23
2018-04-29T20:40:35.333Z,44.13
2018-04-29T20:45:36.347Z,51.00
2018-04-29T20:50:37.373Z,45.47
2018-04-29T20:55:38.355Z,45.60
2018-04-29T21:00:39.363Z,49.47
2018-04-29T21:05:40.389Z,47.07
2018-04-29T21:10:41.414Z,50.83
2018-04-29T21:15:42.402Z,44.83
2018-04-29T21:20:43.367Z,53.00
2018-04-29T21:25:44.457Z,48.33
2018-04-29T21:30:45.466Z,51.27
2018-04-29T21:35:46.491Z,46.07
2018-04-29T21:40:47.459Z,44.90
2018-04-29T21:45:48.473Z,35.87
2018-04-29T21:50:49.487Z,40.87
2018-04-29T21:55:50.474Z,37.30
2018-04-29T22:00:51.491Z,34.37
2018-04-29T22:05:52.501Z,35.43
2018-04-29T22:10:53.512Z,30.97
2018-04-29T22:15:54.500Z,38.80
2018-04-29T22:20:55.476Z,42.77
2018-04-29T22:25:57.021Z,44.73
2018-04-29T22:30:58.245Z,38.47
2018-04-29T22:35:59.502Z,41.27
2018-04-29T22:41:00.529Z,39.97
2018-04-29T22:46:01.512Z,44.80
2018-04-29T22:51:02.519Z,42.10
2018-04-29T22:56:03.510Z,46.00
2018-04-29T23:01:04.463Z,41.80
2018-04-29T23:06:05.479Z,44.40
2018-04-29T23:11:06.435Z,50.40
2018-04-29T23:16:07.423Z,44.80
2018-04-29T23:21:08.365Z,43.73
2018-04-29T23:26:09.380Z,50.57
2018-04-29T23:31:10.353Z,44.73
2018-04-29T23:36:11.345Z,49.87
2018-04-29T23:41:12.332Z,44.37
2018-04-29T23:46:13.291Z,41.10
2018-04-29T23:51:14.259Z,37.07
2018-04-29T23:56:15.240Z,41.93
